sensor_id;sensor_type;location;lat;lon;timestamp;pressure;altitude;pressure_sealevel;temperature;humidity
42761;BME280;31672;47.638;19.026;2023-03-22T00:00:55;100078.47;;;6.78;70.38
42761;BME280;31672;47.638;19.026;2023-03-22T00:05:58;100074.06;;;6.69;70.99
42761;BME280;31672;47.638;19.026;2023-03-22T00:11:02;100076.22;;;6.56;71.83
42761;BME280;31672;47.638;19.026;2023-03-22T00:16:06;100076.53;;;6.43;71.66
42761;BME280;31672;47.638;19.026;2023-03-22T00:21:15;100070.75;;;6.30;72.13
42761;BME280;31672;47.638;19.026;2023-03-22T00:26:19;100066.06;;;6.14;72.73
42761;BME280;31672;47.638;19.026;2023-03-22T00:31:22;100068.84;;;6.03;73.03
42761;BME280;31672;47.638;19.026;2023-03-22T00:36:26;100060.69;;;5.96;73.93
42761;BME280;31672;47.638;19.026;2023-03-22T00:41:29;100061.78;;;5.94;74.11
42761;BME280;31672;47.638;19.026;2023-03-22T00:46:32;100064.84;;;5.89;74.04
42761;BME280;31672;47.638;19.026;2023-03-22T00:51:35;100067.06;;;5.84;74.67
42761;BME280;31672;47.638;19.026;2023-03-22T00:56:38;100063.88;;;5.71;75.76
42761;BME280;31672;47.638;19.026;2023-03-22T01:01:42;100061.53;;;5.58;76.40
42761;BME280;31672;47.638;19.026;2023-03-22T01:06:45;100059.13;;;5.45;76.59
42761;BME280;31672;47.638;19.026;2023-03-22T01:11:48;100049.69;;;5.33;76.70
42761;BME280;31672;47.638;19.026;2023-03-22T01:16:52;100053.44;;;5.21;77.58
42761;BME280;31672;47.638;19.026;2023-03-22T01:21:59;100053.97;;;5.15;77.82
42761;BME280;31672;47.638;19.026;2023-03-22T01:27:02;100054.28;;;5.12;78.46
42761;BME280;31672;47.638;19.026;2023-03-22T01:32:05;100038.19;;;5.05;78.95
42761;BME280;31672;47.638;19.026;2023-03-22T01:37:08;100035.81;;;5.02;79.08
42761;BME280;31672;47.638;19.026;2023-03-22T01:42:13;100041.75;;;4.94;79.77
42761;BME280;31672;47.638;19.026;2023-03-22T01:47:17;100039.00;;;4.86;79.78
42761;BME280;31672;47.638;19.026;2023-03-22T01:52:20;100046.03;;;4.76;80.28
42761;BME280;31672;47.638;19.026;2023-03-22T01:57:24;100041.16;;;4.71;80.61
42761;BME280;31672;47.638;19.026;2023-03-22T02:02:27;100054.44;;;4.70;80.61
42761;BME280;31672;47.638;19.026;2023-03-22T02:07:32;100042.78;;;4.63;80.85
42761;BME280;31672;47.638;19.026;2023-03-22T02:13:09;100059.97;;;4.67;81.77
42761;BME280;31672;47.638;19.026;2023-03-22T02:18:37;100057.53;;;4.75;83.30
42761;BME280;31672;47.638;19.026;2023-03-22T02:46:26;100056.81;;;5.42;84.31
42761;BME280;31672;47.638;19.026;2023-03-22T02:51:49;100051.81;;;5.58;84.23
42761;BME280;31672;47.638;19.026;2023-03-22T02:57:19;100060.69;;;5.77;84.33
42761;BME280;31672;47.638;19.026;2023-03-22T03:02:28;100057.03;;;5.87;83.90
42761;BME280;31672;47.638;19.026;2023-03-22T03:07:32;100063.47;;;5.95;83.86
42761;BME280;31672;47.638;19.026;2023-03-22T03:12:36;100070.81;;;6.01;83.85
42761;BME280;31672;47.638;19.026;2023-03-22T03:24:26;100069.09;;;6.19;83.23
42761;BME280;31672;47.638;19.026;2023-03-22T03:29:04;100067.72;;;6.25;83.49
42761;BME280;31672;47.638;19.026;2023-03-22T03:34:25;100071.53;;;6.40;83.96
42761;BME280;31672;47.638;19.026;2023-03-22T03:39:32;100069.84;;;6.49;83.79
42761;BME280;31672;47.638;19.026;2023-03-22T03:44:37;100067.88;;;6.60;84.43
42761;BME280;31672;47.638;19.026;2023-03-22T03:49:41;100070.59;;;6.68;83.69
42761;BME280;31672;47.638;19.026;2023-03-22T03:54:44;100063.94;;;6.64;83.01
42761;BME280;31672;47.638;19.026;2023-03-22T03:59:47;100057.41;;;6.59;82.60
42761;BME280;31672;47.638;19.026;2023-03-22T04:04:50;100062.63;;;6.41;82.13
42761;BME280;31672;47.638;19.026;2023-03-22T04:09:53;100067.00;;;6.23;82.13
42761;BME280;31672;47.638;19.026;2023-03-22T04:14:58;100063.00;;;6.09;83.09
42761;BME280;31672;47.638;19.026;2023-03-22T04:20:01;100073.72;;;6.07;83.37
42761;BME280;31672;47.638;19.026;2023-03-22T04:25:12;100074.13;;;6.03;83.68
42761;BME280;31672;47.638;19.026;2023-03-22T04:30:17;100065.66;;;5.99;84.16
42761;BME280;31672;47.638;19.026;2023-03-22T04:35:22;100057.91;;;5.98;84.33
42761;BME280;31672;47.638;19.026;2023-03-22T04:40:25;100075.81;;;5.94;83.97
42761;BME280;31672;47.638;19.026;2023-03-22T04:45:30;100068.72;;;5.85;84.03
42761;BME280;31672;47.638;19.026;2023-03-22T04:50:34;100077.03;;;5.80;84.36
42761;BME280;31672;47.638;19.026;2023-03-22T04:55:37;100090.94;;;5.73;85.01
42761;BME280;31672;47.638;19.026;2023-03-22T05:00:40;100067.19;;;5.73;85.62
42761;BME280;31672;47.638;19.026;2023-03-22T05:05:56;100083.69;;;5.75;85.85
42761;BME280;31672;47.638;19.026;2023-03-22T05:11:09;100094.53;;;5.72;86.04
42761;BME280;31672;47.638;19.026;2023-03-22T05:16:13;100087.59;;;5.71;86.11
42761;BME280;31672;47.638;19.026;2023-03-22T05:21:17;100102.16;;;5.75;86.67
42761;BME280;31672;47.638;19.026;2023-03-22T05:26:24;100099.94;;;5.80;86.81
42761;BME280;31672;47.638;19.026;2023-03-22T05:31:29;100107.75;;;5.91;86.75
42761;BME280;31672;47.638;19.026;2023-03-22T05:36:36;100114.25;;;6.06;86.81
42761;BME280;31672;47.638;19.026;2023-03-22T05:41:39;100114.22;;;6.16;86.69
42761;BME280;31672;47.638;19.026;2023-03-22T05:46:42;100112.25;;;6.28;86.26
42761;BME280;31672;47.638;19.026;2023-03-22T05:51:45;100120.84;;;6.39;85.81
42761;BME280;31672;47.638;19.026;2023-03-22T05:56:48;100123.88;;;6.54;85.57
42761;BME280;31672;47.638;19.026;2023-03-22T06:01:51;100127.44;;;6.73;84.83
42761;BME280;31672;47.638;19.026;2023-03-22T06:06:54;100135.13;;;6.93;83.98
42761;BME280;31672;47.638;19.026;2023-03-22T06:11:58;100141.69;;;7.17;83.67
42761;BME280;31672;47.638;19.026;2023-03-22T06:17:01;100134.34;;;7.38;81.99
42761;BME280;31672;47.638;19.026;2023-03-22T06:22:07;100139.72;;;7.64;81.72
42761;BME280;31672;47.638;19.026;2023-03-22T06:27:10;100140.31;;;7.94;80.64
42761;BME280;31672;47.638;19.026;2023-03-22T06:32:15;100141.28;;;8.28;79.50
42761;BME280;31672;47.638;19.026;2023-03-22T06:37:18;100140.38;;;8.64;78.49
42761;BME280;31672;47.638;19.026;2023-03-22T06:42:21;100144.38;;;9.02;76.90
42761;BME280;31672;47.638;19.026;2023-03-22T06:47:25;100146.94;;;9.28;74.84
42761;BME280;31672;47.638;19.026;2023-03-22T06:52:28;100142.41;;;9.54;73.63
42761;BME280;31672;47.638;19.026;2023-03-22T06:57:31;100154.38;;;9.75;72.49
42761;BME280;31672;47.638;19.026;2023-03-22T07:02:35;100150.91;;;9.99;71.08
42761;BME280;31672;47.638;19.026;2023-03-22T07:07:38;100158.72;;;10.25;70.66
42761;BME280;31672;47.638;19.026;2023-03-22T07:12:41;100159.72;;;10.56;69.66
42761;BME280;31672;47.638;19.026;2023-03-22T07:17:45;100154.13;;;10.98;69.38
42761;BME280;31672;47.638;19.026;2023-03-22T07:22:50;100155.47;;;11.34;67.23
42761;BME280;31672;47.638;19.026;2023-03-22T07:27:54;100157.97;;;11.66;66.49
42761;BME280;31672;47.638;19.026;2023-03-22T07:32:59;100147.34;;;12.12;65.94
42761;BME280;31672;47.638;19.026;2023-03-22T07:38:03;100145.78;;;12.55;63.90
42761;BME280;31672;47.638;19.026;2023-03-22T07:43:07;100133.38;;;12.92;63.46
42761;BME280;31672;47.638;19.026;2023-03-22T07:48:13;100131.00;;;13.27;61.94
42761;BME280;31672;47.638;19.026;2023-03-22T07:53:18;100138.28;;;13.54;61.22
42761;BME280;31672;47.638;19.026;2023-03-22T07:58:21;100131.97;;;13.77;59.98
42761;BME280;31672;47.638;19.026;2023-03-22T08:03:24;100132.84;;;14.05;59.64
42761;BME280;31672;47.638;19.026;2023-03-22T08:08:28;100119.69;;;14.32;57.50
42761;BME280;31672;47.638;19.026;2023-03-22T08:13:31;100126.09;;;14.59;55.81
42761;BME280;31672;47.638;19.026;2023-03-22T08:18:35;100131.91;;;14.69;55.17
42761;BME280;31672;47.638;19.026;2023-03-22T08:23:38;100124.53;;;14.71;54.74
42761;BME280;31672;47.638;19.026;2023-03-22T08:28:44;100129.97;;;14.56;53.99
42761;BME280;31672;47.638;19.026;2023-03-22T08:33:48;100114.59;;;14.58;53.67
42761;BME280;31672;47.638;19.026;2023-03-22T08:38:52;100123.59;;;14.57;53.40
42761;BME280;31672;47.638;19.026;2023-03-22T08:43:56;100134.28;;;14.57;52.95
42761;BME280;31672;47.638;19.026;2023-03-22T08:48:59;100136.31;;;14.77;53.62
42761;BME280;31672;47.638;19.026;2023-03-22T08:54:04;100134.34;;;14.98;52.77
42761;BME280;31672;47.638;19.026;2023-03-22T08:59:08;100127.59;;;15.09;52.01
42761;BME280;31672;47.638;19.026;2023-03-22T09:04:12;100131.38;;;15.21;51.91
42761;BME280;31672;47.638;19.026;2023-03-22T09:09:15;100128.97;;;15.40;52.04
42761;BME280;31672;47.638;19.026;2023-03-22T09:14:18;100129.19;;;15.45;50.92
42761;BME280;31672;47.638;19.026;2023-03-22T09:19:21;100123.56;;;15.26;50.97
42761;BME280;31672;47.638;19.026;2023-03-22T09:24:24;100121.44;;;15.09;51.56
42761;BME280;31672;47.638;19.026;2023-03-22T09:29:27;100118.78;;;15.15;51.81
42761;BME280;31672;47.638;19.026;2023-03-22T09:34:30;100111.19;;;15.19;51.00
42761;BME280;31672;47.638;19.026;2023-03-22T09:39:33;100114.09;;;15.24;51.39
42761;BME280;31672;47.638;19.026;2023-03-22T09:44:42;100109.50;;;15.11;51.35
42761;BME280;31672;47.638;19.026;2023-03-22T09:49:49;100108.63;;;14.97;51.54
42761;BME280;31672;47.638;19.026;2023-03-22T09:54:55;100111.81;;;14.80;52.19
42761;BME280;31672;47.638;19.026;2023-03-22T10:00:32;100107.66;;;14.70;52.17
42761;BME280;31672;47.638;19.026;2023-03-22T10:06:19;100114.81;;;14.63;52.48
42761;BME280;31672;47.638;19.026;2023-03-22T10:16:30;100106.06;;;14.48;52.73
42761;BME280;31672;47.638;19.026;2023-03-22T10:21:35;100102.50;;;14.41;53.13
42761;BME280;31672;47.638;19.026;2023-03-22T10:26:43;100102.72;;;14.39;53.68
42761;BME280;31672;47.638;19.026;2023-03-22T10:31:47;100102.72;;;14.39;53.54
42761;BME280;31672;47.638;19.026;2023-03-22T10:36:51;100112.09;;;14.29;53.13
42761;BME280;31672;47.638;19.026;2023-03-22T10:41:58;100103.28;;;14.35;53.26
42761;BME280;31672;47.638;19.026;2023-03-22T10:47:03;100092.19;;;14.38;53.17
42761;BME280;31672;47.638;19.026;2023-03-22T10:57:28;100097.06;;;14.56;52.51
42761;BME280;31672;47.638;19.026;2023-03-22T11:02:32;100090.66;;;14.85;52.44
42761;BME280;31672;47.638;19.026;2023-03-22T11:07:43;100087.78;;;14.93;51.48
42761;BME280;31672;47.638;19.026;2023-03-22T11:18:13;100051.63;;;15.71;50.19
42761;BME280;31672;47.638;19.026;2023-03-22T11:23:19;100047.50;;;16.15;49.95
42761;BME280;31672;47.638;19.026;2023-03-22T11:28:39;100053.16;;;16.65;47.66
42761;BME280;31672;47.638;19.026;2023-03-22T11:33:56;100034.81;;;17.13;46.89
42761;BME280;31672;47.638;19.026;2023-03-22T11:39:05;100028.00;;;17.81;46.02
42761;BME280;31672;47.638;19.026;2023-03-22T11:44:18;100022.91;;;17.98;42.96
42761;BME280;31672;47.638;19.026;2023-03-22T11:49:33;100015.78;;;18.28;42.58
42761;BME280;31672;47.638;19.026;2023-03-22T11:54:39;100008.19;;;18.25;41.46
42761;BME280;31672;47.638;19.026;2023-03-22T12:00:04;100010.63;;;18.27;40.13
42761;BME280;31672;47.638;19.026;2023-03-22T12:05:27;100004.59;;;18.31;40.37
42761;BME280;31672;47.638;19.026;2023-03-22T12:10:43;100007.44;;;18.55;39.29
42761;BME280;31672;47.638;19.026;2023-03-22T12:15:55;100009.91;;;18.38;39.41
42761;BME280;31672;47.638;19.026;2023-03-22T12:21:01;100001.25;;;18.36;38.99
42761;BME280;31672;47.638;19.026;2023-03-22T12:26:20;100009.56;;;18.09;39.10
42761;BME280;31672;47.638;19.026;2023-03-22T12:31:41;100006.31;;;17.82;39.28
42761;BME280;31672;47.638;19.026;2023-03-22T12:36:56;100001.91;;;17.56;40.42
42761;BME280;31672;47.638;19.026;2023-03-22T12:42:30;100011.06;;;17.49;39.96
42761;BME280;31672;47.638;19.026;2023-03-22T12:47:45;100005.19;;;17.33;40.83
42761;BME280;31672;47.638;19.026;2023-03-22T12:52:52;99996.81;;;17.17;40.79
42761;BME280;31672;47.638;19.026;2023-03-22T12:57:59;99996.69;;;17.36;41.91
42761;BME280;31672;47.638;19.026;2023-03-22T13:03:36;99990.44;;;17.74;41.26
42761;BME280;31672;47.638;19.026;2023-03-22T13:19:58;99965.47;;;17.67;40.30
42761;BME280;31672;47.638;19.026;2023-03-22T13:25:26;99965.56;;;18.04;39.97
42761;BME280;31672;47.638;19.026;2023-03-22T13:30:54;99958.69;;;18.08;39.92
42761;BME280;31672;47.638;19.026;2023-03-22T13:36:22;99951.06;;;18.23;39.23
42761;BME280;31672;47.638;19.026;2023-03-22T13:41:30;99943.31;;;18.33;38.56
42761;BME280;31672;47.638;19.026;2023-03-22T13:51:40;99935.88;;;18.35;38.83
42761;BME280;31672;47.638;19.026;2023-03-22T13:56:56;99933.59;;;18.51;38.12
42761;BME280;31672;47.638;19.026;2023-03-22T14:02:20;99935.22;;;18.52;38.63
42761;BME280;31672;47.638;19.026;2023-03-22T14:07:53;99938.53;;;18.17;37.14
42761;BME280;31672;47.638;19.026;2023-03-22T14:18:39;99922.53;;;17.85;37.59
42761;BME280;31672;47.638;19.026;2023-03-22T14:23:50;99914.47;;;17.60;37.49
42761;BME280;31672;47.638;19.026;2023-03-22T14:28:53;99917.63;;;17.51;38.43
42761;BME280;31672;47.638;19.026;2023-03-22T14:34:03;99910.03;;;17.48;37.90
42761;BME280;31672;47.638;19.026;2023-03-22T14:39:21;99912.25;;;17.51;38.13
42761;BME280;31672;47.638;19.026;2023-03-22T14:44:29;99911.91;;;17.47;37.37
42761;BME280;31672;47.638;19.026;2023-03-22T14:49:39;99909.22;;;17.47;37.88
42761;BME280;31672;47.638;19.026;2023-03-22T14:54:43;99903.94;;;17.59;37.62
42761;BME280;31672;47.638;19.026;2023-03-22T14:59:49;99910.44;;;17.76;37.87
42761;BME280;31672;47.638;19.026;2023-03-22T15:04:51;99895.06;;;17.83;37.97
42761;BME280;31672;47.638;19.026;2023-03-22T15:10:14;99896.78;;;17.53;37.45
42761;BME280;31672;47.638;19.026;2023-03-22T15:15:18;99894.72;;;17.48;38.25
42761;BME280;31672;47.638;19.026;2023-03-22T15:20:35;99890.59;;;17.27;38.58
42761;BME280;31672;47.638;19.026;2023-03-22T15:25:38;99894.69;;;17.30;39.16
42761;BME280;31672;47.638;19.026;2023-03-22T15:30:49;99882.38;;;17.65;39.66
42761;BME280;31672;47.638;19.026;2023-03-22T15:35:54;99880.41;;;17.98;39.39
42761;BME280;31672;47.638;19.026;2023-03-22T15:40:57;99871.47;;;18.52;38.91
42761;BME280;31672;47.638;19.026;2023-03-22T15:46:14;99866.03;;;19.01;38.12
42761;BME280;31672;47.638;19.026;2023-03-22T15:51:19;99866.06;;;19.24;36.82
42761;BME280;31672;47.638;19.026;2023-03-22T15:56:28;99863.81;;;18.97;37.21
42761;BME280;31672;47.638;19.026;2023-03-22T16:01:41;99866.13;;;18.82;36.81
42761;BME280;31672;47.638;19.026;2023-03-22T16:06:47;99872.22;;;18.41;37.05
42761;BME280;31672;47.638;19.026;2023-03-22T16:11:49;99877.13;;;17.96;38.48
42761;BME280;31672;47.638;19.026;2023-03-22T16:16:52;99875.53;;;17.45;39.45
42761;BME280;31672;47.638;19.026;2023-03-22T16:21:53;99872.63;;;16.96;40.35
42761;BME280;31672;47.638;19.026;2023-03-22T16:26:55;99870.84;;;16.45;41.67
42761;BME280;31672;47.638;19.026;2023-03-22T16:31:57;99880.91;;;16.05;42.87
42761;BME280;31672;47.638;19.026;2023-03-22T16:37:09;99886.78;;;15.62;44.06
42761;BME280;31672;47.638;19.026;2023-03-22T16:47:24;99898.25;;;14.83;45.95
42761;BME280;31672;47.638;19.026;2023-03-22T16:52:27;99909.59;;;14.44;47.16
42761;BME280;31672;47.638;19.026;2023-03-22T16:57:29;99907.59;;;14.05;48.18
42761;BME280;31672;47.638;19.026;2023-03-22T17:02:35;99897.28;;;13.67;49.58
42761;BME280;31672;47.638;19.026;2023-03-22T17:07:37;99898.69;;;13.35;50.10
42761;BME280;31672;47.638;19.026;2023-03-22T17:12:40;99899.22;;;13.02;51.20
42761;BME280;31672;47.638;19.026;2023-03-22T17:17:42;99908.97;;;12.74;51.71
42761;BME280;31672;47.638;19.026;2023-03-22T17:22:44;99912.53;;;12.45;52.72
42761;BME280;31672;47.638;19.026;2023-03-22T17:27:46;99915.31;;;12.22;53.65
42761;BME280;31672;47.638;19.026;2023-03-22T17:32:48;99909.53;;;12.03;54.42
42761;BME280;31672;47.638;19.026;2023-03-22T17:37:51;99916.72;;;11.88;54.97
42761;BME280;31672;47.638;19.026;2023-03-22T17:42:54;99918.69;;;11.71;55.10
42761;BME280;31672;47.638;19.026;2023-03-22T17:47:56;99931.50;;;11.53;55.77
42761;BME280;31672;47.638;19.026;2023-03-22T17:53:00;99938.16;;;11.34;56.29
42761;BME280;31672;47.638;19.026;2023-03-22T17:58:03;99943.59;;;11.18;56.93
42761;BME280;31672;47.638;19.026;2023-03-22T18:03:05;99943.59;;;10.95;57.73
42761;BME280;31672;47.638;19.026;2023-03-22T18:08:06;99949.19;;;10.77;58.87
42761;BME280;31672;47.638;19.026;2023-03-22T18:13:09;99957.59;;;10.58;59.32
42761;BME280;31672;47.638;19.026;2023-03-22T18:18:11;99961.97;;;10.42;60.48
42761;BME280;31672;47.638;19.026;2023-03-22T18:23:13;99963.34;;;10.30;60.85
42761;BME280;31672;47.638;19.026;2023-03-22T18:28:15;99965.19;;;10.22;61.60
42761;BME280;31672;47.638;19.026;2023-03-22T18:33:17;99977.19;;;10.09;61.75
42761;BME280;31672;47.638;19.026;2023-03-22T18:38:21;99980.03;;;9.91;61.87
42761;BME280;31672;47.638;19.026;2023-03-22T18:43:23;99968.97;;;9.72;61.93
42761;BME280;31672;47.638;19.026;2023-03-22T18:48:26;99974.59;;;9.52;62.10
42761;BME280;31672;47.638;19.026;2023-03-22T18:53:28;99981.72;;;9.35;62.97
42761;BME280;31672;47.638;19.026;2023-03-22T18:58:31;99983.56;;;9.19;64.28
42761;BME280;31672;47.638;19.026;2023-03-22T19:03:33;99983.53;;;9.02;64.79
42761;BME280;31672;47.638;19.026;2023-03-22T19:08:37;99988.28;;;8.91;65.56
42761;BME280;31672;47.638;19.026;2023-03-22T19:13:39;99978.81;;;8.80;66.36
42761;BME280;31672;47.638;19.026;2023-03-22T19:18:41;99980.94;;;8.68;66.67
42761;BME280;31672;47.638;19.026;2023-03-22T19:23:45;99984.88;;;8.56;67.13
42761;BME280;31672;47.638;19.026;2023-03-22T19:28:47;99979.19;;;8.43;66.94
42761;BME280;31672;47.638;19.026;2023-03-22T19:33:49;99977.78;;;8.30;67.57
42761;BME280;31672;47.638;19.026;2023-03-22T19:38:54;99976.41;;;8.18;68.00
42761;BME280;31672;47.638;19.026;2023-03-22T19:43:57;99974.84;;;8.08;68.67
42761;BME280;31672;47.638;19.026;2023-03-22T19:49:00;99964.03;;;7.93;68.72
42761;BME280;31672;47.638;19.026;2023-03-22T19:54:03;99974.25;;;7.88;69.16
42761;BME280;31672;47.638;19.026;2023-03-22T19:59:08;99969.06;;;7.78;70.35
42761;BME280;31672;47.638;19.026;2023-03-22T20:04:10;99968.19;;;7.69;70.76
42761;BME280;31672;47.638;19.026;2023-03-22T20:09:12;99955.75;;;7.62;71.37
42761;BME280;31672;47.638;19.026;2023-03-22T20:14:14;99957.47;;;7.53;71.58
42761;BME280;31672;47.638;19.026;2023-03-22T20:19:17;99959.59;;;7.49;71.96
42761;BME280;31672;47.638;19.026;2023-03-22T20:24:20;99962.03;;;7.43;72.35
42761;BME280;31672;47.638;19.026;2023-03-22T20:29:23;99966.63;;;7.41;72.56
42761;BME280;31672;47.638;19.026;2023-03-22T20:34:25;99967.91;;;7.37;72.59
42761;BME280;31672;47.638;19.026;2023-03-22T20:39:28;99968.25;;;7.34;72.93
42761;BME280;31672;47.638;19.026;2023-03-22T20:44:30;99978.28;;;7.30;72.87
42761;BME280;31672;47.638;19.026;2023-03-22T20:49:32;99979.44;;;7.28;72.97
42761;BME280;31672;47.638;19.026;2023-03-22T20:54:34;99977.53;;;7.20;72.82
42761;BME280;31672;47.638;19.026;2023-03-22T20:59:36;99978.59;;;7.09;73.21
42761;BME280;31672;47.638;19.026;2023-03-22T21:04:38;99973.38;;;7.00;73.83
42761;BME280;31672;47.638;19.026;2023-03-22T21:09:41;99969.53;;;6.94;74.35
42761;BME280;31672;47.638;19.026;2023-03-22T21:14:43;99973.47;;;6.90;74.60
42761;BME280;31672;47.638;19.026;2023-03-22T21:19:45;99976.09;;;6.90;74.89
42761;BME280;31672;47.638;19.026;2023-03-22T21:24:50;99975.84;;;6.83;74.93
42761;BME280;31672;47.638;19.026;2023-03-22T21:29:52;99971.16;;;6.77;74.92
42761;BME280;31672;47.638;19.026;2023-03-22T21:34:54;99970.41;;;6.67;74.95
42761;BME280;31672;47.638;19.026;2023-03-22T21:39:57;99983.22;;;6.62;75.63
42761;BME280;31672;47.638;19.026;2023-03-22T21:45:06;99984.88;;;6.63;75.96
42761;BME280;31672;47.638;19.026;2023-03-22T21:50:08;99992.94;;;6.61;76.01
42761;BME280;31672;47.638;19.026;2023-03-22T21:55:10;99993.22;;;6.58;76.02
42761;BME280;31672;47.638;19.026;2023-03-22T22:00:13;99994.66;;;6.53;76.09
42761;BME280;31672;47.638;19.026;2023-03-22T22:05:20;100006.63;;;6.47;75.98
42761;BME280;31672;47.638;19.026;2023-03-22T22:10:22;100004.88;;;6.38;76.21
42761;BME280;31672;47.638;19.026;2023-03-22T22:15:25;100005.16;;;6.35;76.28
42761;BME280;31672;47.638;19.026;2023-03-22T22:20:27;99998.13;;;6.26;76.38
42761;BME280;31672;47.638;19.026;2023-03-22T22:25:29;99997.88;;;6.19;76.96
42761;BME280;31672;47.638;19.026;2023-03-22T22:30:31;100005.91;;;6.17;77.26
42761;BME280;31672;47.638;19.026;2023-03-22T22:35:32;99999.78;;;6.17;77.39
42761;BME280;31672;47.638;19.026;2023-03-22T22:40:34;99996.78;;;6.12;77.77
42761;BME280;31672;47.638;19.026;2023-03-22T22:45:36;99992.09;;;6.06;77.37
42761;BME280;31672;47.638;19.026;2023-03-22T22:50:39;99983.78;;;6.01;77.34
42761;BME280;31672;47.638;19.026;2023-03-22T22:55:41;99990.13;;;5.98;77.44
42761;BME280;31672;47.638;19.026;2023-03-22T23:00:42;99980.44;;;5.89;77.54
42761;BME280;31672;47.638;19.026;2023-03-22T23:05:45;99986.13;;;5.84;77.92
42761;BME280;31672;47.638;19.026;2023-03-22T23:10:51;99991.81;;;5.80;78.19
42761;BME280;31672;47.638;19.026;2023-03-22T23:15:53;99995.19;;;5.72;78.09
42761;BME280;31672;47.638;19.026;2023-03-22T23:20:55;99987.44;;;5.61;78.26
42761;BME280;31672;47.638;19.026;2023-03-22T23:26:00;99997.69;;;5.54;78.77
42761;BME280;31672;47.638;19.026;2023-03-22T23:31:07;99988.56;;;5.49;78.65
42761;BME280;31672;47.638;19.026;2023-03-22T23:41:22;99999.78;;;5.31;78.88
42761;BME280;31672;47.638;19.026;2023-03-22T23:46:24;99999.38;;;5.26;79.20
42761;BME280;31672;47.638;19.026;2023-03-22T23:51:26;100003.53;;;5.19;79.45
42761;BME280;31672;47.638;19.026;2023-03-22T23:56:29;100007.00;;;5.10;79.63
